Time;durP1;ratioP1;P1;durP2;ratioP2;P2;SDS_P1;SDS_P2;PMS_P1;PMS_P2;Temp;Humidity;BMP_temperature;BMP_pressure;BME280_temperature;BME280_humidity;BME280_pressure;Samples;Min_cycle;Max_cycle;Signal;HPM_P1;HPM_P2
2024/03/16 00:01:17;;;;;;;14.90;11.10;;;;;;;10.19;70.42;98523.70;226540;1275;25262;-79
2024/03/16 00:06:22;;;;;;;14.70;10.50;;;;;;;10.17;70.33;98519.91;226562;1275;22666;-78
2024/03/16 00:11:27;;;;;;;12.70;10.00;;;;;;;10.15;70.36;98522.77;226474;1275;25410;-79
2024/03/16 00:16:31;;;;;;;15.40;11.00;;;;;;;10.13;70.51;98520.32;226532;1275;25407;-78
2024/03/16 00:21:33;;;;;;;12.10;9.20;;;;;;;10.14;70.64;98517.65;226591;1253;22532;-79
2024/03/16 00:26:37;;;;;;;13.40;10.40;;;;;;;10.13;70.48;98516.46;226612;1276;22543;-80
2024/03/16 00:31:39;;;;;;;13.60;11.00;;;;;;;10.12;70.86;98515.84;226569;1273;22545;-80
2024/03/16 00:36:41;;;;;;;13.50;10.50;;;;;;;10.11;70.65;98514.81;226617;1266;22551;-81
2024/03/16 00:41:44;;;;;;;14.80;10.90;;;;;;;10.11;70.89;98514.05;226554;1261;22575;-79
2024/03/16 00:46:47;;;;;;;13.30;9.90;;;;;;;10.14;70.88;98512.61;226647;1275;23073;-79
2024/03/16 00:51:50;;;;;;;15.10;11.10;;;;;;;10.16;70.76;98511.73;226700;1276;25265;-78
2024/03/16 00:56:52;;;;;;;14.60;10.30;;;;;;;10.15;70.87;98505.96;226705;1273;23004;-79
2024/03/16 01:01:54;;;;;;;13.90;10.70;;;;;;;10.14;70.90;98496.81;226620;1274;26061;-78
2024/03/16 01:06:56;;;;;;;14.40;10.40;;;;;;;10.13;71.05;98495.62;226664;1276;22552;-78
2024/03/16 01:11:58;;;;;;;13.60;10.20;;;;;;;10.11;71.04;98491.77;226431;1276;22556;-78
2024/03/16 01:17:03;;;;;;;13.20;9.90;;;;;;;10.10;71.11;98493.52;226702;1271;22655;-79
2024/03/16 01:22:05;;;;;;;13.00;9.80;;;;;;;10.09;71.21;98485.58;226521;1276;22644;-78
2024/03/16 01:27:08;;;;;;;13.60;10.50;;;;;;;10.07;71.26;98485.37;226640;1273;24984;-79
2024/03/16 01:32:10;;;;;;;14.50;10.90;;;;;;;10.06;71.33;98483.81;226426;1276;22538;-80
2024/03/16 01:37:13;;;;;;;14.10;11.30;;;;;;;10.03;71.38;98480.09;226592;1276;22551;-78
2024/03/16 01:42:16;;;;;;;15.60;11.90;;;;;;;10.01;71.60;98482.70;226694;1270;24229;-79
2024/03/16 01:47:20;;;;;;;18.00;12.80;;;;;;;9.98;71.52;98481.09;226612;1276;22546;-80
2024/03/16 01:52:22;;;;;;;17.00;12.90;;;;;;;9.95;71.60;98477.21;226678;1253;24229;-79
2024/03/16 01:57:24;;;;;;;16.50;13.10;;;;;;;9.91;71.67;98475.98;226611;1273;22603;-78
2024/03/16 02:02:37;;;;;;;16.10;12.60;;;;;;;9.87;71.75;98479.84;226678;1270;22539;-79
2024/03/16 02:07:39;;;;;;;15.80;12.90;;;;;;;9.85;72.13;98480.02;226564;1275;22568;-79
2024/03/16 02:12:44;;;;;;;14.80;11.50;;;;;;;9.85;72.03;98480.19;226579;1273;22573;-79
2024/03/16 02:17:46;;;;;;;12.40;10.20;;;;;;;9.86;72.21;98480.77;226558;1276;24252;-79
2024/03/16 02:22:49;;;;;;;13.30;10.20;;;;;;;9.88;72.30;98480.02;226670;1273;22578;-79
2024/03/16 02:27:58;;;;;;;;;;;;;;;9.89;72.28;98479.87;226667;1274;22577;-79
2024/03/16 02:33:05;;;;;;;13.60;10.10;;;;;;;9.87;72.25;98479.48;226572;1276;23017;-78
2024/03/16 02:38:07;;;;;;;13.80;10.10;;;;;;;9.81;71.94;98479.09;226491;1273;22540;-79
2024/03/16 02:43:09;;;;;;;13.40;10.60;;;;;;;9.74;72.28;98480.95;226354;1272;380566;-78
2024/03/16 02:48:11;;;;;;;13.80;10.20;;;;;;;9.67;72.10;98481.28;226553;1275;22557;-79
2024/03/16 02:53:14;;;;;;;14.70;10.40;;;;;;;9.61;72.24;98484.04;226541;1275;22553;-79
2024/03/16 02:58:16;;;;;;;13.60;10.40;;;;;;;9.54;72.21;98486.23;226424;1276;22585;-78
2024/03/16 03:03:20;;;;;;;12.00;10.00;;;;;;;9.50;72.45;98483.23;226702;1272;22556;-79
2024/03/16 03:08:22;;;;;;;14.00;9.70;;;;;;;9.49;72.38;98484.02;226712;1270;22580;-79
2024/03/16 03:13:24;;;;;;;11.30;9.70;;;;;;;9.52;72.77;98487.02;226675;1276;22552;-78
2024/03/16 03:18:27;;;;;;;12.00;9.60;;;;;;;9.54;72.61;98484.91;226555;1275;22612;-79
2024/03/16 03:23:29;;;;;;;13.30;9.80;;;;;;;9.60;72.48;98487.67;226685;1275;23729;-78
2024/03/16 03:28:32;;;;;;;14.70;9.80;;;;;;;9.65;72.69;98483.67;226409;1275;22565;-77
2024/03/16 03:33:34;;;;;;;12.90;10.20;;;;;;;9.69;72.60;98480.49;226582;1266;22628;-78
2024/03/16 03:38:37;;;;;;;12.70;10.50;;;;;;;9.73;72.68;98482.77;226530;1275;22659;-78
2024/03/16 03:43:40;;;;;;;12.20;10.10;;;;;;;9.77;72.67;98486.88;226653;1266;22645;-78
2024/03/16 03:48:49;;;;;;;11.90;9.70;;;;;;;9.79;72.38;98486.98;226571;1275;22544;-79
2024/03/16 03:53:52;;;;;;;13.00;10.10;;;;;;;9.80;72.46;98487.92;226576;1270;22583;-79
2024/03/16 03:58:54;;;;;;;13.60;10.20;;;;;;;9.82;72.47;98497.12;226586;1275;22554;-79
2024/03/16 04:03:57;;;;;;;11.90;9.20;;;;;;;9.82;72.13;98495.66;226444;1275;22542;-79
2024/03/16 04:09:00;;;;;;;11.70;9.60;;;;;;;9.83;72.45;98498.72;226644;1267;22540;-78
2024/03/16 04:14:02;;;;;;;10.80;9.10;;;;;;;9.82;72.23;98491.68;226728;1274;22744;-78
2024/03/16 04:19:03;;;;;;;11.10;9.00;;;;;;;9.79;72.29;98492.23;226620;1275;24245;-79
2024/03/16 04:24:06;;;;;;;11.50;9.50;;;;;;;9.76;72.46;98493.06;226701;1270;22541;-78
2024/03/16 04:29:08;;;;;;;11.80;9.30;;;;;;;9.72;72.23;98491.77;226553;1275;22567;-78
2024/03/16 04:34:10;;;;;;;12.00;9.40;;;;;;;9.70;72.30;98490.08;226681;1272;22553;-79
2024/03/16 04:39:12;;;;;;;11.20;9.20;;;;;;;9.69;72.44;98494.98;226715;1272;22569;-78
2024/03/16 04:44:14;;;;;;;10.90;9.00;;;;;;;9.68;72.31;98504.73;226708;1275;25257;-78
2024/03/16 04:49:16;;;;;;;11.20;9.60;;;;;;;9.67;72.43;98509.11;226553;1275;22536;-77
2024/03/16 04:54:18;;;;;;;9.70;8.20;;;;;;;9.65;72.36;98514.98;226717;1269;25028;-78
2024/03/16 04:59:20;;;;;;;12.20;9.10;;;;;;;9.61;72.54;98512.25;226652;1275;22545;-78
2024/03/16 05:04:23;;;;;;;12.60;9.40;;;;;;;9.58;72.46;98518.77;226623;1275;22569;-78
2024/03/16 05:09:25;;;;;;;13.50;9.90;;;;;;;9.58;72.54;98520.73;226651;1270;25985;-79
2024/03/16 05:14:27;;;;;;;11.10;9.50;;;;;;;9.56;72.44;98521.48;226640;1273;22679;-78
2024/03/16 05:19:29;;;;;;;12.00;8.90;;;;;;;9.54;72.30;98522.63;226661;1273;22579;-79
2024/03/16 05:24:32;;;;;;;11.40;9.80;;;;;;;9.51;72.47;98522.92;226594;1275;22562;-79
2024/03/16 05:29:34;;;;;;;13.00;9.10;;;;;;;9.49;72.50;98520.24;226641;1270;25951;-79
2024/03/16 05:34:36;;;;;;;15.30;11.10;;;;;;;9.48;72.58;98523.23;226654;1275;22550;-78
2024/03/16 05:39:40;;;;;;;14.60;10.20;;;;;;;9.46;72.85;98528.13;226452;1272;22551;-79
2024/03/16 05:44:42;;;;;;;13.90;10.80;;;;;;;9.48;72.97;98536.86;226737;1271;22562;-79
2024/03/16 05:49:44;;;;;;;15.00;10.70;;;;;;;9.55;72.98;98536.02;226532;1274;22566;-79
2024/03/16 05:54:46;;;;;;;15.90;11.60;;;;;;;9.65;73.18;98533.05;226717;1269;23232;-78
2024/03/16 05:59:48;;;;;;;16.50;11.70;;;;;;;9.76;73.16;98528.41;226636;1269;22587;-78
2024/03/16 06:04:51;;;;;;;15.50;12.10;;;;;;;9.86;73.27;98528.30;226661;1270;25440;-78
2024/03/16 06:09:53;;;;;;;13.50;11.50;;;;;;;9.95;72.96;98533.41;226655;1275;22557;-78
2024/03/16 06:14:55;;;;;;;16.50;12.80;;;;;;;9.97;72.69;98537.55;226640;1274;22580;-78
2024/03/16 06:19:57;;;;;;;16.60;11.90;;;;;;;10.00;72.74;98537.64;226696;1270;22571;-79
2024/03/16 06:24:59;;;;;;;15.80;11.80;;;;;;;10.06;72.72;98539.61;226656;1272;22568;-78
2024/03/16 06:30:02;;;;;;;17.10;12.20;;;;;;;10.14;72.65;98544.70;226722;1274;22554;-79
2024/03/16 06:35:05;;;;;;;16.10;12.20;;;;;;;10.21;72.60;98549.13;226576;1272;22547;-79
2024/03/16 06:40:07;;;;;;;15.40;12.80;;;;;;;10.33;72.34;98552.96;226632;1275;22961;-79
2024/03/16 06:45:09;;;;;;;18.20;14.30;;;;;;;10.46;72.44;98560.16;226554;1275;22554;-78
2024/03/16 06:50:12;;;;;;;18.50;16.10;;;;;;;10.58;72.45;98562.94;226508;1275;25406;-78
2024/03/16 06:55:17;;;;;;;21.20;17.20;;;;;;;10.69;72.14;98566.98;226489;1275;22561;-78
2024/03/16 07:00:19;;;;;;;15.60;12.10;;;;;;;10.85;72.22;98576.92;226644;1273;22548;-78
2024/03/16 07:05:21;;;;;;;13.90;11.10;;;;;;;11.05;72.22;98589.23;226505;1275;22534;-80
2024/03/16 07:10:23;;;;;;;13.00;9.90;;;;;;;11.24;72.00;98581.98;226518;1275;22557;-79
2024/03/16 07:15:26;;;;;;;12.30;9.60;;;;;;;11.43;71.94;98583.41;226593;1253;22549;-79
2024/03/16 07:20:28;;;;;;;15.60;10.50;;;;;;;11.58;71.90;98589.36;226490;1275;22551;-78
2024/03/16 07:25:30;;;;;;;14.10;9.90;;;;;;;11.68;71.53;98590.02;226689;1271;22659;-79
2024/03/16 07:30:32;;;;;;;16.30;10.20;;;;;;;11.78;71.48;98595.39;226562;1273;22541;-80
2024/03/16 07:35:35;;;;;;;9.70;8.10;;;;;;;11.89;71.52;98593.42;226666;1272;22557;-80
2024/03/16 07:40:37;;;;;;;15.80;9.90;;;;;;;11.99;71.43;98594.80;226432;1275;22574;-80
2024/03/16 07:45:42;;;;;;;9.90;8.30;;;;;;;12.09;71.22;98598.02;226483;1274;22660;-80
2024/03/16 07:50:45;;;;;;;10.80;9.00;;;;;;;12.18;71.31;98597.75;226514;1274;22549;-79
2024/03/16 07:55:47;;;;;;;12.80;10.00;;;;;;;12.27;71.22;98602.98;226642;1263;22550;-84
2024/03/16 08:00:49;;;;;;;13.00;9.60;;;;;;;12.33;71.00;98609.36;226604;1266;22552;-78
2024/03/16 08:05:51;;;;;;;12.40;9.20;;;;;;;12.39;71.08;98614.55;226684;1269;22804;-79
2024/03/16 08:10:54;;;;;;;10.80;9.70;;;;;;;12.49;71.03;98613.41;226698;1274;22544;-79
2024/03/16 08:15:56;;;;;;;10.80;8.80;;;;;;;12.61;70.95;98621.44;226685;1268;22556;-79
2024/03/16 08:20:58;;;;;;;11.30;8.50;;;;;;;12.80;70.95;98622.48;226535;1252;22493;-79
2024/03/16 08:26:01;;;;;;;11.00;8.70;;;;;;;13.02;70.88;98619.75;226662;1267;22553;-78
2024/03/16 08:31:04;;;;;;;12.80;8.60;;;;;;;13.27;70.66;98615.35;226528;1262;22928;-79
2024/03/16 08:36:07;;;;;;;11.20;8.00;;;;;;;13.55;70.48;98614.23;226565;1271;22536;-78
2024/03/16 08:41:09;;;;;;;9.20;7.10;;;;;;;13.75;69.87;98616.45;226548;1266;22649;-78
2024/03/16 08:46:11;;;;;;;8.60;7.40;;;;;;;13.80;69.24;98619.42;226560;1252;22621;-79
2024/03/16 08:51:13;;;;;;;8.90;7.40;;;;;;;13.90;69.39;98612.17;226289;1267;22542;-78
2024/03/16 08:56:15;;;;;;;10.40;8.40;;;;;;;14.09;69.31;98608.61;226543;1272;23100;-78
2024/03/16 09:01:17;;;;;;;9.50;7.60;;;;;;;14.24;68.92;98606.14;226568;1271;25165;-78
2024/03/16 09:06:19;;;;;;;8.80;7.30;;;;;;;14.35;68.93;98606.80;226501;1269;25282;-79
2024/03/16 09:11:21;;;;;;;8.00;6.40;;;;;;;14.54;68.97;98606.02;226617;1269;24278;-79
2024/03/16 09:16:27;;;;;;;9.90;7.20;;;;;;;14.72;68.80;98604.09;226473;1273;22538;-79
2024/03/16 09:21:29;;;;;;;8.10;6.90;;;;;;;14.84;68.36;98598.46;226453;1275;22994;-80
2024/03/16 09:26:31;;;;;;;7.10;5.60;;;;;;;14.97;68.38;98604.17;226106;1251;22577;-79
2024/03/16 09:31:34;;;;;;;5.00;4.20;;;;;;;15.26;68.52;98604.48;225998;1267;22639;-79
2024/03/16 09:36:37;;;;;;;4.70;4.00;;;;;;;15.49;67.99;98596.06;225814;1268;22949;-80
2024/03/16 09:41:39;;;;;;;5.00;4.50;;;;;;;15.66;67.43;98593.46;225882;1267;22556;-79
2024/03/16 09:46:43;;;;;;;7.70;4.80;;;;;;;15.80;67.28;98586.38;226159;1259;22584;-79
2024/03/16 09:51:46;;;;;;;5.70;4.30;;;;;;;16.10;67.22;98583.64;226481;1268;22554;-79
2024/03/16 09:56:49;;;;;;;4.70;3.70;;;;;;;16.34;66.33;98584.23;226200;1268;24178;-79
2024/03/16 10:01:51;;;;;;;3.90;3.20;;;;;;;16.49;65.70;98575.48;226505;1257;22576;-79
2024/03/16 10:06:52;;;;;;;3.70;2.80;;;;;;;16.63;65.12;98578.42;226605;1266;23633;-79
2024/03/16 10:12:08;;;;;;;4.00;2.70;;;;;;;16.72;64.72;98575.52;226511;1268;22549;-80
2024/03/16 10:17:09;;;;;;;3.10;2.70;;;;;;;16.91;64.60;98577.64;226658;1268;23456;-80
2024/03/16 10:22:12;;;;;;;4.00;3.20;;;;;;;16.96;63.76;98572.09;226639;1274;22553;-80
2024/03/16 10:27:14;;;;;;;3.20;2.50;;;;;;;16.91;63.33;98566.02;226693;1275;22853;-80
2024/03/16 10:32:17;;;;;;;3.20;2.80;;;;;;;16.99;63.08;98564.94;226677;1271;22624;-80
2024/03/16 10:37:20;;;;;;;3.60;2.60;;;;;;;17.04;63.24;98565.44;226652;1266;25253;-83
2024/03/16 10:42:22;;;;;;;4.40;2.60;;;;;;;17.18;62.67;98560.77;226543;1274;22671;-80
2024/03/16 10:47:24;;;;;;;3.40;3.10;;;;;;;17.19;62.65;98558.27;226734;1259;22549;-80
2024/03/16 10:52:27;;;;;;;4.20;3.00;;;;;;;17.28;63.14;98563.62;226590;1274;22630;-81
2024/03/16 10:57:29;;;;;;;3.10;2.60;;;;;;;17.45;62.75;98563.71;226583;1272;22565;-79
2024/03/16 11:02:31;;;;;;;4.50;2.60;;;;;;;17.64;62.19;98574.08;226571;1274;22557;-80
2024/03/16 11:07:34;;;;;;;3.20;2.40;;;;;;;17.64;61.46;98568.56;226574;1274;22535;-80
2024/03/16 11:12:36;;;;;;;2.60;1.60;;;;;;;17.52;61.03;98570.48;226466;1273;22621;-78
2024/03/16 11:17:38;;;;;;;3.10;1.60;;;;;;;17.45;60.63;98571.77;226375;1263;22703;-78
2024/03/16 11:22:41;;;;;;;2.70;1.80;;;;;;;17.44;60.96;98564.00;226738;1266;22543;-79
2024/03/16 11:27:50;;;;;;;3.40;1.90;;;;;;;17.56;61.28;98561.02;226688;1251;22542;-79
2024/03/16 11:33:12;;;;;;;1.70;1.40;;;;;;;17.87;61.29;98555.39;226277;1272;23083;-78
2024/03/16 11:38:18;;;;;;;1.90;1.70;;;;;;;17.90;59.88;98553.63;226538;1264;22560;-79
2024/03/16 11:43:20;;;;;;;2.70;1.60;;;;;;;17.81;60.36;98546.39;226599;1260;24991;-79
2024/03/16 11:48:22;;;;;;;3.00;1.40;;;;;;;17.96;60.94;98547.79;226568;1272;22612;-79
2024/03/16 11:53:26;;;;;;;2.20;1.50;;;;;;;18.10;59.87;98547.70;226485;1268;22508;-80
2024/03/16 11:58:29;;;;;;;2.30;1.80;;;;;;;18.02;59.34;98539.55;226487;1268;22892;-79
2024/03/16 12:03:31;;;;;;;2.40;1.60;;;;;;;17.78;59.42;98535.77;226181;1274;23074;-79
2024/03/16 12:08:33;;;;;;;2.30;1.70;;;;;;;17.60;59.72;98530.56;226338;1272;22555;-78
2024/03/16 12:13:35;;;;;;;3.90;1.60;;;;;;;17.55;60.36;98531.67;226078;1275;22838;-79
2024/03/16 12:18:38;;;;;;;2.80;1.30;;;;;;;17.60;59.98;98524.67;226119;1274;22539;-79
2024/03/16 12:23:40;;;;;;;1.90;1.30;;;;;;;17.60;60.14;98524.40;226300;1275;22577;-78
2024/03/16 12:28:45;;;;;;;3.70;2.00;;;;;;;17.59;59.17;98527.80;226169;1272;25973;-79
2024/03/16 12:33:46;;;;;;;3.60;2.20;;;;;;;17.47;59.73;98528.80;226333;1272;22529;-79
2024/03/16 12:38:48;;;;;;;6.30;3.10;;;;;;;17.42;59.97;98535.86;226579;1270;22562;-79
2024/03/16 12:43:51;;;;;;;4.00;2.60;;;;;;;17.29;59.97;98536.02;226456;1272;22542;-79
2024/03/16 12:48:53;;;;;;;6.40;2.70;;;;;;;17.27;60.10;98540.05;226605;1272;22554;-78
2024/03/16 12:53:54;;;;;;;3.70;2.80;;;;;;;17.10;60.28;98547.98;226544;1271;22619;-79
2024/03/16 12:58:56;;;;;;;4.20;2.60;;;;;;;17.01;61.10;98554.64;226569;1274;24218;-79
2024/03/16 13:03:59;;;;;;;4.00;2.90;;;;;;;16.93;61.27;98556.75;226539;1275;22542;-79
2024/03/16 13:09:10;;;;;;;5.10;3.20;;;;;;;16.85;61.59;98556.85;226402;1275;22549;-79
2024/03/16 13:14:12;;;;;;;3.90;3.00;;;;;;;16.78;61.79;98560.70;226549;1275;22565;-78
2024/03/16 13:19:15;;;;;;;3.60;2.60;;;;;;;16.73;61.95;98563.08;226501;1275;22546;-79
2024/03/16 13:24:19;;;;;;;4.60;3.10;;;;;;;16.60;62.39;98566.52;226581;1272;22534;-79
2024/03/16 13:29:21;;;;;;;4.70;3.40;;;;;;;16.57;63.23;98568.63;226305;1253;22566;-79
2024/03/16 13:34:23;;;;;;;3.60;3.20;;;;;;;16.45;63.70;98566.59;226649;1275;22541;-79
2024/03/16 13:39:25;;;;;;;5.20;3.60;;;;;;;16.26;64.01;98565.17;226642;1271;22543;-79
2024/03/16 13:44:27;;;;;;;6.70;4.50;;;;;;;16.14;64.48;98566.15;226632;1275;22569;-79
2024/03/16 13:49:31;;;;;;;4.10;3.30;;;;;;;16.00;64.69;98561.74;226549;1275;22560;-78
2024/03/16 13:54:33;;;;;;;5.20;3.30;;;;;;;15.90;65.35;98555.45;226552;1274;22572;-79
2024/03/16 13:59:35;;;;;;;3.70;3.10;;;;;;;15.89;65.35;98556.08;226599;1273;25415;-79
2024/03/16 14:04:37;;;;;;;4.20;3.80;;;;;;;15.93;65.69;98550.20;226620;1275;22558;-79
2024/03/16 14:09:39;;;;;;;4.30;3.30;;;;;;;16.04;65.47;98550.54;226573;1273;22546;-79
2024/03/16 14:14:41;;;;;;;3.60;3.20;;;;;;;16.04;65.53;98547.23;226605;1275;22984;-79
2024/03/16 14:19:43;;;;;;;3.20;2.50;;;;;;;15.96;65.52;98536.17;226457;1275;23354;-79
2024/03/16 14:24:48;;;;;;;3.80;2.40;;;;;;;15.79;65.50;98527.17;226630;1275;22546;-79
2024/03/16 14:29:51;;;;;;;3.20;2.70;;;;;;;15.71;65.47;98528.98;226517;1275;22576;-79
2024/03/16 14:34:53;;;;;;;4.40;2.80;;;;;;;15.69;65.81;98523.23;226550;1275;22551;-79
2024/03/16 14:39:55;;;;;;;3.40;2.70;;;;;;;15.78;65.91;98525.58;226632;1271;22541;-79
2024/03/16 14:44:57;;;;;;;3.50;2.90;;;;;;;15.86;65.44;98528.05;226409;1275;242460;-79
2024/03/16 14:49:59;;;;;;;3.20;2.90;;;;;;;15.80;64.92;98520.52;226536;1275;22557;-79
2024/03/16 14:55:02;;;;;;;4.00;2.90;;;;;;;15.66;64.93;98518.56;226608;1272;22544;-79
2024/03/16 15:00:06;;;;;;;3.70;3.10;;;;;;;15.48;64.86;98512.79;226634;1272;25429;-79
2024/03/16 15:05:08;;;;;;;3.30;3.00;;;;;;;15.45;65.53;98508.23;226239;1275;22552;-79
2024/03/16 15:10:13;;;;;;;3.70;2.80;;;;;;;15.57;65.75;98508.63;226574;1274;22759;-79
2024/03/16 15:15:15;;;;;;;4.30;2.80;;;;;;;15.67;65.11;98514.98;226639;1254;22540;-79
2024/03/16 15:20:17;;;;;;;3.00;2.40;;;;;;;15.62;64.80;98517.75;226456;1274;22582;-79
2024/03/16 15:25:20;;;;;;;2.80;2.60;;;;;;;15.49;64.37;98518.56;226545;1275;22551;-79
2024/03/16 15:30:25;;;;;;;3.30;2.50;;;;;;;15.35;64.68;98528.36;226417;1275;22550;-79
2024/03/16 15:35:26;;;;;;;3.70;2.40;;;;;;;15.29;64.73;98529.55;226614;1272;25246;-79
2024/03/16 15:40:29;;;;;;;3.60;2.20;;;;;;;15.21;64.58;98526.63;226554;1275;22547;-79
2024/03/16 15:45:31;;;;;;;3.80;2.40;;;;;;;15.09;64.65;98533.80;226622;1275;22568;-79
2024/03/16 15:50:33;;;;;;;3.80;2.80;;;;;;;14.98;65.15;98543.96;226632;1272;22553;-79
2024/03/16 15:55:35;;;;;;;5.90;3.40;;;;;;;14.81;65.41;98539.32;226690;1274;22546;-79
2024/03/16 16:00:37;;;;;;;5.10;3.70;;;;;;;14.57;65.93;98540.95;226712;1274;22537;-78
2024/03/16 16:05:38;;;;;;;4.40;3.30;;;;;;;14.37;66.46;98550.08;226674;1272;22550;-79
2024/03/16 16:10:40;;;;;;;3.80;3.40;;;;;;;14.16;66.42;98552.48;226481;1274;22542;-78
2024/03/16 16:15:42;;;;;;;5.30;3.90;;;;;;;13.96;67.06;98552.55;226512;1274;22542;-78
2024/03/16 16:20:45;;;;;;;5.60;4.40;;;;;;;13.78;67.16;98549.52;226608;1274;22541;-79
2024/03/16 16:25:47;;;;;;;5.30;4.20;;;;;;;13.67;67.84;98552.52;226710;1274;24902;-79
2024/03/16 16:30:49;;;;;;;4.70;4.10;;;;;;;13.59;68.15;98558.79;226620;1270;22581;-78
2024/03/16 16:35:53;;;;;;;6.20;4.70;;;;;;;13.50;68.31;98561.56;226691;1274;22550;-78
2024/03/16 16:40:55;;;;;;;5.90;5.30;;;;;;;13.42;68.40;98562.14;226618;1274;25589;-79
2024/03/16 16:45:58;;;;;;;7.00;4.80;;;;;;;13.34;68.66;98559.61;226547;1274;22538;-79
2024/03/16 16:51:02;;;;;;;8.70;5.60;;;;;;;13.26;69.06;98553.63;226712;1274;22584;-78
2024/03/16 16:56:05;;;;;;;10.20;7.30;;;;;;;13.21;69.59;98560.72;226589;1275;22608;-78
2024/03/16 17:01:07;;;;;;;12.40;9.10;;;;;;;13.18;70.08;98568.82;226451;1274;22586;-78
2024/03/16 17:06:09;;;;;;;8.50;6.90;;;;;;;13.17;70.22;98583.40;226603;1272;22528;-78
2024/03/16 17:11:18;;;;;;;6.00;4.00;;;;;;;13.13;70.77;98590.31;226706;1257;22635;-79
2024/03/16 17:16:20;;;;;;;4.80;3.10;;;;;;;13.03;70.83;98594.41;226735;1275;24199;-79
2024/03/16 17:21:22;;;;;;;5.20;3.60;;;;;;;12.91;71.17;98598.52;226656;1274;22567;-79
2024/03/16 17:26:27;;;;;;;5.60;3.80;;;;;;;12.79;71.29;98609.67;226577;1275;22578;-80
2024/03/16 17:31:29;;;;;;;5.80;3.60;;;;;;;12.69;71.60;98616.14;226672;1273;22544;-79
2024/03/16 17:36:31;;;;;;;6.50;4.20;;;;;;;12.60;71.90;98624.78;226662;1275;22591;-80
2024/03/16 17:41:33;;;;;;;9.20;4.50;;;;;;;12.49;72.04;98628.04;226878;1254;24990;-78
2024/03/16 17:46:37;;;;;;;6.90;4.30;;;;;;;12.39;72.43;98622.30;226655;1275;22563;-79
2024/03/16 17:51:38;;;;;;;5.90;4.50;;;;;;;12.30;72.72;98627.02;226645;1259;22730;-78
2024/03/16 17:56:42;;;;;;;8.70;5.50;;;;;;;12.22;72.85;98634.80;226734;1272;22545;-78
2024/03/16 18:01:43;;;;;;;10.60;6.60;;;;;;;12.15;73.37;98644.12;226614;1275;22595;-78
2024/03/16 18:06:46;;;;;;;13.80;8.20;;;;;;;12.05;73.76;98648.95;226632;1275;22568;-79
2024/03/16 18:11:51;;;;;;;13.40;7.90;;;;;;;11.95;73.98;98657.31;226678;1275;22544;-78
2024/03/16 18:16:53;;;;;;;11.80;6.90;;;;;;;11.84;74.41;98661.36;226655;1275;22623;-78
2024/03/16 18:21:55;;;;;;;10.30;6.90;;;;;;;11.75;74.75;98669.92;226683;1274;22544;-78
2024/03/16 18:26:58;;;;;;;7.70;5.80;;;;;;;11.70;75.00;98672.07;226826;1273;22552;-79
2024/03/16 18:32:00;;;;;;;10.40;5.90;;;;;;;11.63;75.30;98679.31;226644;1275;22842;-79
2024/03/16 18:37:03;;;;;;;11.60;6.90;;;;;;;11.60;75.38;98689.64;226686;1275;22528;-78
2024/03/16 18:42:07;;;;;;;10.10;7.00;;;;;;;11.56;75.53;98692.29;226590;1274;22602;-78
2024/03/16 18:47:09;;;;;;;9.70;7.50;;;;;;;11.55;75.64;98696.55;226669;1273;22568;-79
2024/03/16 18:52:11;;;;;;;7.70;5.20;;;;;;;11.55;75.64;98703.39;226731;1275;22585;-79
2024/03/16 18:57:18;;;;;;;6.70;4.70;;;;;;;11.55;75.30;98707.91;226837;1275;24705;-79
2024/03/16 19:02:20;;;;;;;6.60;4.30;;;;;;;11.57;75.22;98718.95;226745;1275;22562;-79
2024/03/16 19:07:24;;;;;;;7.70;4.90;;;;;;;11.61;74.95;98721.52;226732;1272;22593;-78
2024/03/16 19:12:27;;;;;;;6.40;4.80;;;;;;;11.62;74.72;98718.31;226806;1272;24261;-78
2024/03/16 19:17:29;;;;;;;7.10;4.80;;;;;;;11.62;74.60;98729.02;226814;1269;24262;-78
2024/03/16 19:22:32;;;;;;;6.90;4.70;;;;;;;11.63;74.57;98731.14;226831;1274;22610;-78
2024/03/16 19:27:36;;;;;;;7.00;4.40;;;;;;;11.62;74.23;98735.25;226769;1273;22542;-79
2024/03/16 19:32:39;;;;;;;6.20;4.30;;;;;;;11.60;74.11;98729.30;226839;1273;22546;-79
2024/03/16 19:37:42;;;;;;;6.50;4.40;;;;;;;11.59;73.97;98731.27;226822;1272;22553;-78
2024/03/16 19:42:44;;;;;;;7.40;4.80;;;;;;;11.55;73.93;98733.84;226578;1274;22661;-78
2024/03/16 19:47:45;;;;;;;6.70;4.10;;;;;;;11.52;73.99;98744.48;226800;1272;22547;-78
2024/03/16 19:52:48;;;;;;;5.40;3.60;;;;;;;11.48;73.83;98744.86;226603;1274;22542;-79
2024/03/16 19:57:51;;;;;;;3.30;2.20;;;;;;;11.43;73.81;98750.36;226833;1273;22545;-77
2024/03/16 20:02:54;;;;;;;1.90;1.50;;;;;;;11.37;73.79;98752.65;226894;1273;22535;-77
2024/03/16 20:07:56;;;;;;;3.10;1.60;;;;;;;11.29;73.82;98759.02;226677;1274;22560;-79
2024/03/16 20:12:58;;;;;;;3.00;2.00;;;;;;;11.21;73.91;98764.83;226678;1274;22586;-78
2024/03/16 20:18:00;;;;;;;2.50;2.10;;;;;;;11.11;74.36;98775.23;226651;1274;22728;-78
2024/03/16 20:23:03;;;;;;;2.40;1.90;;;;;;;10.95;75.02;98786.13;226768;1272;22538;-79
2024/03/16 20:28:05;;;;;;;4.20;2.20;;;;;;;10.75;75.70;98794.53;226597;1274;24239;-79
2024/03/16 20:33:11;;;;;;;4.40;2.30;;;;;;;10.59;76.33;98799.41;226627;1274;22546;-80
2024/03/16 20:38:13;;;;;;;4.90;2.50;;;;;;;10.41;77.10;98795.67;226524;1274;25293;-79
2024/03/16 20:43:15;;;;;;;2.90;2.40;;;;;;;10.23;77.64;98800.88;226658;1270;22520;-80
2024/03/16 20:48:17;;;;;;;3.30;2.40;;;;;;;10.09;78.16;98804.98;226753;1273;22576;-80
2024/03/16 20:53:20;;;;;;;3.20;2.60;;;;;;;9.97;78.70;98815.46;226823;1264;22558;-79
2024/03/16 20:58:22;;;;;;;7.70;6.20;;;;;;;9.90;79.01;98819.03;226504;1274;22560;-79
2024/03/16 21:03:26;;;;;;;5.30;3.60;;;;;;;9.84;79.45;98827.39;226816;1273;22545;-79
2024/03/16 21:08:27;;;;;;;5.00;3.80;;;;;;;9.78;79.82;98837.09;226952;1269;22536;-80
2024/03/16 21:13:36;;;;;;;5.90;4.10;;;;;;;9.70;80.33;98841.09;226918;1254;24247;-81
2024/03/16 21:18:38;;;;;;;6.10;3.90;;;;;;;9.62;80.70;98844.40;226820;1270;22559;-80
2024/03/16 21:23:42;;;;;;;5.50;4.30;;;;;;;9.53;81.06;98850.13;226747;1274;22555;-81
2024/03/16 21:28:43;;;;;;;6.10;4.90;;;;;;;9.46;81.21;98853.38;226746;1257;22538;-81
2024/03/16 21:33:45;;;;;;;6.70;5.20;;;;;;;9.42;81.43;98857.03;226757;1253;23299;-81
2024/03/16 21:38:47;;;;;;;6.20;4.70;;;;;;;9.37;81.80;98865.83;226879;1275;22559;-81
2024/03/16 21:43:49;;;;;;;6.70;5.00;;;;;;;9.34;82.26;98871.02;226957;1272;22567;-80
2024/03/16 21:48:51;;;;;;;5.00;4.50;;;;;;;9.28;82.15;98869.78;226896;1273;22546;-80
2024/03/16 21:53:54;;;;;;;5.30;4.50;;;;;;;9.21;82.01;98875.99;226826;1273;24443;-80
2024/03/16 21:58:56;;;;;;;5.50;4.70;;;;;;;9.15;82.09;98884.09;226815;1270;22555;-81
2024/03/16 22:03:58;;;;;;;5.60;5.10;;;;;;;9.08;82.34;98883.67;226693;1275;22561;-80
2024/03/16 22:09:09;;;;;;;5.60;5.10;;;;;;;9.02;82.59;98893.55;226674;1275;24233;-80
2024/03/16 22:14:11;;;;;;;7.80;7.10;;;;;;;8.96;82.92;98899.79;226665;1275;22493;-81
2024/03/16 22:19:13;;;;;;;8.00;7.20;;;;;;;8.90;83.20;98899.09;226698;1273;22576;-81
2024/03/16 22:24:16;;;;;;;9.10;8.20;;;;;;;8.83;83.36;98903.61;226787;1272;22559;-81
2024/03/16 22:29:18;;;;;;;9.90;8.80;;;;;;;8.77;83.57;98911.30;226730;1275;22554;-81
2024/03/16 22:34:20;;;;;;;3.30;2.90;;;;;;;8.70;84.15;98940.16;226918;1273;22549;-81
2024/03/16 22:39:22;;;;;;;3.90;3.30;;;;;;;8.53;83.27;98940.33;226897;1273;25247;-82
2024/03/16 22:44:24;;;;;;;5.80;3.80;;;;;;;8.37;83.28;98943.31;226760;1275;22611;-81
2024/03/16 22:49:26;;;;;;;4.50;3.80;;;;;;;8.26;83.41;98947.73;227003;1275;24297;-81
2024/03/16 22:54:28;;;;;;;6.00;5.00;;;;;;;8.19;83.30;98954.67;226994;1272;22541;-81
2024/03/16 22:59:30;;;;;;;5.40;4.80;;;;;;;8.14;83.44;98962.38;226699;1272;22547;-81
2024/03/16 23:04:32;;;;;;;5.30;4.10;;;;;;;8.09;83.78;98978.20;226833;1275;23601;-81
2024/03/16 23:09:38;;;;;;;6.20;4.80;;;;;;;7.99;82.53;98981.35;226924;1275;23026;-80
2024/03/16 23:14:40;;;;;;;6.20;4.60;;;;;;;7.90;82.60;98989.40;226875;1272;22596;-79
2024/03/16 23:19:43;;;;;;;5.50;4.70;;;;;;;7.81;82.45;99003.35;226870;1275;25278;-79